sensor_id;sensor_type;location;lat;lon;timestamp;temperature;humidity
50690;DHT22;71367;48.298;11.238;2023-07-31T00:05:42;15.40;96.20
50690;DHT22;71367;48.298;11.238;2023-07-31T00:20:46;15.10;96.60
50690;DHT22;71367;48.298;11.238;2023-07-31T00:35:51;14.80;97.70
50690;DHT22;71367;48.298;11.238;2023-07-31T00:50:54;14.70;97.90
50690;DHT22;71367;48.298;11.238;2023-07-31T01:06:08;14.50;97.90
50690;DHT22;71367;48.298;11.238;2023-07-31T01:21:21;14.30;98.70
50690;DHT22;71367;48.298;11.238;2023-07-31T01:36:25;14.30;99.70
50690;DHT22;71367;48.298;11.238;2023-07-31T01:51:27;14.30;99.90
50690;DHT22;71367;48.298;11.238;2023-07-31T02:06:29;14.20;99.90
50690;DHT22;71367;48.298;11.238;2023-07-31T02:21:32;14.10;99.90
50690;DHT22;71367;48.298;11.238;2023-07-31T02:36:34;13.90;99.90
50690;DHT22;71367;48.298;11.238;2023-07-31T02:51:37;13.80;99.90
50690;DHT22;71367;48.298;11.238;2023-07-31T03:06:39;13.60;99.90
50690;DHT22;71367;48.298;11.238;2023-07-31T03:21:42;13.40;99.90
50690;DHT22;71367;48.298;11.238;2023-07-31T03:36:44;13.40;99.90
50690;DHT22;71367;48.298;11.238;2023-07-31T03:51:46;13.60;99.90
50690;DHT22;71367;48.298;11.238;2023-07-31T04:06:49;13.70;99.90
50690;DHT22;71367;48.298;11.238;2023-07-31T04:21:51;13.90;99.90
50690;DHT22;71367;48.298;11.238;2023-07-31T04:36:53;14.20;99.90
50690;DHT22;71367;48.298;11.238;2023-07-31T04:51:56;14.50;99.90
50690;DHT22;71367;48.298;11.238;2023-07-31T05:06:58;14.80;99.90
50690;DHT22;71367;48.298;11.238;2023-07-31T05:22:01;15.20;99.60
50690;DHT22;71367;48.298;11.238;2023-07-31T05:37:04;16.00;98.30
50690;DHT22;71367;48.298;11.238;2023-07-31T05:52:07;16.60;97.60
50690;DHT22;71367;48.298;11.238;2023-07-31T06:07:09;17.00;96.60
50690;DHT22;71367;48.298;11.238;2023-07-31T06:22:12;17.60;96.10
50690;DHT22;71367;48.298;11.238;2023-07-31T06:37:14;17.90;95.20
50690;DHT22;71367;48.298;11.238;2023-07-31T06:52:16;18.30;94.30
50690;DHT22;71367;48.298;11.238;2023-07-31T07:07:19;19.00;92.70
50690;DHT22;71367;48.298;11.238;2023-07-31T07:22:22;19.70;92.00
50690;DHT22;71367;48.298;11.238;2023-07-31T07:37:24;20.10;91.10
50690;DHT22;71367;48.298;11.238;2023-07-31T07:52:27;21.00;88.10
50690;DHT22;71367;48.298;11.238;2023-07-31T08:07:30;21.60;84.50
50690;DHT22;71367;48.298;11.238;2023-07-31T08:22:33;21.80;78.50
50690;DHT22;71367;48.298;11.238;2023-07-31T08:37:37;21.10;80.00
50690;DHT22;71367;48.298;11.238;2023-07-31T08:52:40;20.60;82.50
50690;DHT22;71367;48.298;11.238;2023-07-31T09:07:44;19.80;85.60
50690;DHT22;71367;48.298;11.238;2023-07-31T09:22:48;20.50;78.50
50690;DHT22;71367;48.298;11.238;2023-07-31T09:37:53;20.30;79.20
50690;DHT22;71367;48.298;11.238;2023-07-31T09:52:55;21.20;76.50
50690;DHT22;71367;48.298;11.238;2023-07-31T10:07:58;21.40;75.40
50690;DHT22;71367;48.298;11.238;2023-07-31T10:23:00;22.40;76.50
50690;DHT22;71367;48.298;11.238;2023-07-31T10:38:12;22.70;73.30
50690;DHT22;71367;48.298;11.238;2023-07-31T10:53:24;22.50;73.70
50690;DHT22;71367;48.298;11.238;2023-07-31T11:08:28;23.00;69.90
50690;DHT22;71367;48.298;11.238;2023-07-31T11:23:30;23.00;70.10
50690;DHT22;71367;48.298;11.238;2023-07-31T11:38:33;23.00;71.00
50690;DHT22;71367;48.298;11.238;2023-07-31T11:53:38;24.70;65.40
50690;DHT22;71367;48.298;11.238;2023-07-31T12:08:43;25.30;65.40
50690;DHT22;71367;48.298;11.238;2023-07-31T12:23:46;26.60;61.60
50690;DHT22;71367;48.298;11.238;2023-07-31T12:38:49;25.60;60.70
50690;DHT22;71367;48.298;11.238;2023-07-31T12:53:52;25.70;61.00
50690;DHT22;71367;48.298;11.238;2023-07-31T13:08:55;25.60;60.30
50690;DHT22;71367;48.298;11.238;2023-07-31T13:23:57;26.60;59.10
50690;DHT22;71367;48.298;11.238;2023-07-31T13:39:00;26.30;58.20
50690;DHT22;71367;48.298;11.238;2023-07-31T13:54:02;26.20;58.00
50690;DHT22;71367;48.298;11.238;2023-07-31T14:09:05;26.10;56.70
50690;DHT22;71367;48.298;11.238;2023-07-31T14:24:07;26.60;58.00
50690;DHT22;71367;48.298;11.238;2023-07-31T14:39:10;25.50;58.90
50690;DHT22;71367;48.298;11.238;2023-07-31T14:54:12;25.90;56.70
50690;DHT22;71367;48.298;11.238;2023-07-31T15:09:15;25.00;60.50
50690;DHT22;71367;48.298;11.238;2023-07-31T15:24:17;23.10;69.30
50690;DHT22;71367;48.298;11.238;2023-07-31T15:39:20;22.20;72.00
50690;DHT22;71367;48.298;11.238;2023-07-31T15:54:22;21.60;76.80
50690;DHT22;71367;48.298;11.238;2023-07-31T16:09:25;21.50;77.20
50690;DHT22;71367;48.298;11.238;2023-07-31T16:24:27;21.50;76.90
50690;DHT22;71367;48.298;11.238;2023-07-31T16:39:29;21.40;79.00
50690;DHT22;71367;48.298;11.238;2023-07-31T16:54:32;21.50;79.30
50690;DHT22;71367;48.298;11.238;2023-07-31T17:09:35;21.70;78.30
50690;DHT22;71367;48.298;11.238;2023-07-31T17:24:37;21.90;78.60
50690;DHT22;71367;48.298;11.238;2023-07-31T17:39:40;22.30;78.20
50690;DHT22;71367;48.298;11.238;2023-07-31T17:54:43;22.40;78.60
50690;DHT22;71367;48.298;11.238;2023-07-31T18:09:45;22.50;78.60
50690;DHT22;71367;48.298;11.238;2023-07-31T18:24:48;22.30;79.00
50690;DHT22;71367;48.298;11.238;2023-07-31T18:39:50;22.00;80.50
50690;DHT22;71367;48.298;11.238;2023-07-31T18:54:53;21.50;81.30
50690;DHT22;71367;48.298;11.238;2023-07-31T19:09:56;20.70;83.20
50690;DHT22;71367;48.298;11.238;2023-07-31T19:24:58;20.10;85.20
50690;DHT22;71367;48.298;11.238;2023-07-31T19:40:01;19.60;86.40
50690;DHT22;71367;48.298;11.238;2023-07-31T19:55:04;19.30;87.90
50690;DHT22;71367;48.298;11.238;2023-07-31T20:10:08;19.00;89.50
50690;DHT22;71367;48.298;11.238;2023-07-31T20:25:11;18.80;90.30
50690;DHT22;71367;48.298;11.238;2023-07-31T20:40:13;18.60;90.40
50690;DHT22;71367;48.298;11.238;2023-07-31T20:55:16;18.40;90.50
50690;DHT22;71367;48.298;11.238;2023-07-31T21:10:19;18.40;90.60
50690;DHT22;71367;48.298;11.238;2023-07-31T21:25:22;18.40;91.40
50690;DHT22;71367;48.298;11.238;2023-07-31T21:40:24;18.40;91.60
50690;DHT22;71367;48.298;11.238;2023-07-31T21:55:27;18.40;91.80
50690;DHT22;71367;48.298;11.238;2023-07-31T22:10:29;18.30;91.30
50690;DHT22;71367;48.298;11.238;2023-07-31T22:25:32;18.30;90.70
50690;DHT22;71367;48.298;11.238;2023-07-31T22:40:34;18.30;92.40
50690;DHT22;71367;48.298;11.238;2023-07-31T22:55:36;18.20;94.10
50690;DHT22;71367;48.298;11.238;2023-07-31T23:10:38;17.80;97.40
50690;DHT22;71367;48.298;11.238;2023-07-31T23:25:41;17.70;97.20
50690;DHT22;71367;48.298;11.238;2023-07-31T23:40:45;17.70;97.80
50690;DHT22;71367;48.298;11.238;2023-07-31T23:55:48;17.70;98.20
